sensor_id;sensor_type;location;lat;lon;timestamp;pressure;altitude;pressure_sealevel;temperature;humidity
53932;BME280;39844;52.496;13.482;2022-10-31T00:00:53;101648.06;;;11.29;100.00
53932;BME280;39844;52.496;13.482;2022-10-31T00:03:19;101653.31;;;11.29;100.00
53932;BME280;39844;52.496;13.482;2022-10-31T00:05:46;101641.91;;;11.25;100.00
53932;BME280;39844;52.496;13.482;2022-10-31T00:08:12;101654.13;;;11.20;100.00
53932;BME280;39844;52.496;13.482;2022-10-31T00:10:39;101651.47;;;11.19;100.00
53932;BME280;39844;52.496;13.482;2022-10-31T00:13:05;101644.44;;;11.16;100.00
53932;BME280;39844;52.496;13.482;2022-10-31T00:15:32;101652.34;;;11.16;100.00
53932;BME280;39844;52.496;13.482;2022-10-31T00:17:58;101650.59;;;11.15;100.00
53932;BME280;39844;52.496;13.482;2022-10-31T00:20:23;101645.31;;;11.12;100.00
53932;BME280;39844;52.496;13.482;2022-10-31T00:22:49;101654.03;;;11.11;100.00
53932;BME280;39844;52.496;13.482;2022-10-31T00:25:14;101647.94;;;11.11;100.00
53932;BME280;39844;52.496;13.482;2022-10-31T00:27:39;101658.44;;;11.11;100.00
53932;BME280;39844;52.496;13.482;2022-10-31T00:30:05;101655.81;;;11.12;100.00
53932;BME280;39844;52.496;13.482;2022-10-31T00:32:30;101657.59;;;11.13;100.00
53932;BME280;39844;52.496;13.482;2022-10-31T00:34:56;101659.34;;;11.13;100.00
53932;BME280;39844;52.496;13.482;2022-10-31T00:37:21;101666.31;;;11.12;100.00
53932;BME280;39844;52.496;13.482;2022-10-31T00:39:46;101658.44;;;11.11;100.00
53932;BME280;39844;52.496;13.482;2022-10-31T00:42:14;101660.16;;;11.07;100.00
53932;BME280;39844;52.496;13.482;2022-10-31T00:44:39;101655.75;;;11.05;100.00
53932;BME280;39844;52.496;13.482;2022-10-31T00:47:04;101661.84;;;11.02;100.00
53932;BME280;39844;52.496;13.482;2022-10-31T00:49:29;101668.84;;;11.00;100.00
53932;BME280;39844;52.496;13.482;2022-10-31T00:51:55;101677.59;;;10.99;100.00
53932;BME280;39844;52.496;13.482;2022-10-31T00:54:20;101675.81;;;10.97;100.00
53932;BME280;39844;52.496;13.482;2022-10-31T00:56:45;101674.03;;;10.94;100.00
53932;BME280;39844;52.496;13.482;2022-10-31T00:59:11;101677.50;;;10.92;100.00
53932;BME280;39844;52.496;13.482;2022-10-31T01:01:36;101680.13;;;10.90;100.00
53932;BME280;39844;52.496;13.482;2022-10-31T01:04:01;101673.97;;;10.88;100.00
53932;BME280;39844;52.496;13.482;2022-10-31T01:06:27;101683.56;;;10.86;100.00
53932;BME280;39844;52.496;13.482;2022-10-31T01:08:52;101683.56;;;10.86;100.00
53932;BME280;39844;52.496;13.482;2022-10-31T01:11:19;101685.31;;;10.84;100.00
53932;BME280;39844;52.496;13.482;2022-10-31T01:13:46;101687.94;;;10.84;100.00
53932;BME280;39844;52.496;13.482;2022-10-31T01:16:14;101687.94;;;10.84;100.00
53932;BME280;39844;52.496;13.482;2022-10-31T01:18:40;101688.78;;;10.83;100.00
53932;BME280;39844;52.496;13.482;2022-10-31T01:21:09;101688.78;;;10.83;100.00
53932;BME280;39844;52.496;13.482;2022-10-31T01:23:34;101692.31;;;10.82;100.00
53932;BME280;39844;52.496;13.482;2022-10-31T01:26:16;101688.78;;;10.80;100.00
53932;BME280;39844;52.496;13.482;2022-10-31T01:28:50;101687.00;;;10.79;100.00
53932;BME280;39844;52.496;13.482;2022-10-31T01:31:17;101685.25;;;10.78;100.00
53932;BME280;39844;52.496;13.482;2022-10-31T01:33:43;101681.72;;;10.76;100.00
53932;BME280;39844;52.496;13.482;2022-10-31T01:36:20;101677.31;;;10.73;100.00
53932;BME280;39844;52.496;13.482;2022-10-31T01:38:47;101686.09;;;10.75;100.00
53932;BME280;39844;52.496;13.482;2022-10-31T01:41:14;101686.97;;;10.76;100.00
53932;BME280;39844;52.496;13.482;2022-10-31T01:46:25;101690.47;;;10.75;100.00
53932;BME280;39844;52.496;13.482;2022-10-31T01:48:53;101686.09;;;10.74;100.00
53932;BME280;39844;52.496;13.482;2022-10-31T01:51:23;101684.31;;;10.71;100.00
53932;BME280;39844;52.496;13.482;2022-10-31T01:53:52;101683.41;;;10.71;100.00
53932;BME280;39844;52.496;13.482;2022-10-31T01:56:19;101684.31;;;10.70;100.00
53932;BME280;39844;52.496;13.482;2022-10-31T01:58:45;101679.00;;;10.68;100.00
53932;BME280;39844;52.496;13.482;2022-10-31T02:01:12;101685.13;;;10.66;100.00
53932;BME280;39844;52.496;13.482;2022-10-31T02:03:39;101695.63;;;10.66;100.00
53932;BME280;39844;52.496;13.482;2022-10-31T02:06:07;101693.91;;;10.71;100.00
53932;BME280;39844;52.496;13.482;2022-10-31T02:08:37;101699.22;;;10.74;100.00
53932;BME280;39844;52.496;13.482;2022-10-31T02:11:05;101693.97;;;10.72;100.00
53932;BME280;39844;52.496;13.482;2022-10-31T02:13:33;101694.81;;;10.70;100.00
53932;BME280;39844;52.496;13.482;2022-10-31T02:15:59;101712.25;;;10.66;100.00
53932;BME280;39844;52.496;13.482;2022-10-31T02:18:27;101686.84;;;10.64;100.00
53932;BME280;39844;52.496;13.482;2022-10-31T02:23:36;101690.31;;;10.61;100.00
53932;BME280;39844;52.496;13.482;2022-10-31T02:26:32;101689.47;;;10.62;100.00
53932;BME280;39844;52.496;13.482;2022-10-31T02:34:22;101694.63;;;10.58;100.00
53932;BME280;39844;52.496;13.482;2022-10-31T02:37:12;101692.00;;;10.55;100.00
53932;BME280;39844;52.496;13.482;2022-10-31T02:39:49;101688.47;;;10.53;100.00
53932;BME280;39844;52.496;13.482;2022-10-31T02:42:26;101686.72;;;10.53;100.00
53932;BME280;39844;52.496;13.482;2022-10-31T02:47:36;101690.19;;;10.51;100.00
53932;BME280;39844;52.496;13.482;2022-10-31T02:50:18;101695.44;;;10.49;100.00
53932;BME280;39844;52.496;13.482;2022-10-31T02:52:44;101691.03;;;10.48;100.00
53932;BME280;39844;52.496;13.482;2022-10-31T02:58:07;101698.91;;;10.47;100.00
53932;BME280;39844;52.496;13.482;2022-10-31T03:00:48;101698.00;;;10.46;100.00
53932;BME280;39844;52.496;13.482;2022-10-31T03:03:22;101704.16;;;10.47;100.00
53932;BME280;39844;52.496;13.482;2022-10-31T03:06:10;101706.75;;;10.45;100.00
53932;BME280;39844;52.496;13.482;2022-10-31T03:11:08;101713.75;;;10.45;100.00
53932;BME280;39844;52.496;13.482;2022-10-31T03:13:49;101711.16;;;10.48;100.00
53932;BME280;39844;52.496;13.482;2022-10-31T03:16:32;101715.53;;;10.47;100.00
53932;BME280;39844;52.496;13.482;2022-10-31T03:19:49;101714.66;;;10.47;100.00
53932;BME280;39844;52.496;13.482;2022-10-31T03:21:55;101717.28;;;10.47;100.00
53932;BME280;39844;52.496;13.482;2022-10-31T03:24:27;101725.16;;;10.47;100.00
53932;BME280;39844;52.496;13.482;2022-10-31T03:26:57;101719.06;;;10.49;100.00
53932;BME280;39844;52.496;13.482;2022-10-31T03:29:28;101728.72;;;10.52;100.00
53932;BME280;39844;52.496;13.482;2022-10-31T03:31:58;101731.34;;;10.52;100.00
53932;BME280;39844;52.496;13.482;2022-10-31T03:34:24;101733.94;;;10.50;100.00
53932;BME280;39844;52.496;13.482;2022-10-31T03:36:53;101733.97;;;10.52;100.00
53932;BME280;39844;52.496;13.482;2022-10-31T03:39:21;101733.97;;;10.52;100.00
53932;BME280;39844;52.496;13.482;2022-10-31T03:42:05;101731.31;;;10.49;100.00
53932;BME280;39844;52.496;13.482;2022-10-31T03:44:32;101740.03;;;10.48;100.00
53932;BME280;39844;52.496;13.482;2022-10-31T03:46:59;101747.97;;;10.54;100.00
53932;BME280;39844;52.496;13.482;2022-10-31T03:49:25;101751.56;;;10.59;100.00
53932;BME280;39844;52.496;13.482;2022-10-31T03:52:11;101755.06;;;10.61;100.00
53932;BME280;39844;52.496;13.482;2022-10-31T03:54:44;101755.22;;;10.73;100.00
53932;BME280;39844;52.496;13.482;2022-10-31T03:57:24;101752.63;;;10.76;100.00
53932;BME280;39844;52.496;13.482;2022-10-31T03:59:55;101760.50;;;10.76;100.00
53932;BME280;39844;52.496;13.482;2022-10-31T04:02:30;101759.56;;;10.69;100.00
53932;BME280;39844;52.496;13.482;2022-10-31T04:04:56;101755.13;;;10.65;100.00
53932;BME280;39844;52.496;13.482;2022-10-31T04:07:26;101754.19;;;10.59;100.00
53932;BME280;39844;52.496;13.482;2022-10-31T04:09:53;101760.25;;;10.55;100.00
53932;BME280;39844;52.496;13.482;2022-10-31T04:12:22;101755.00;;;10.55;100.00
53932;BME280;39844;52.496;13.482;2022-10-31T04:14:49;101752.38;;;10.55;100.00
53932;BME280;39844;52.496;13.482;2022-10-31T04:17:18;101758.50;;;10.55;100.00
53932;BME280;39844;52.496;13.482;2022-10-31T04:19:44;101763.75;;;10.55;100.00
53932;BME280;39844;52.496;13.482;2022-10-31T04:22:10;101766.34;;;10.52;100.00
53932;BME280;39844;52.496;13.482;2022-10-31T04:24:37;101767.19;;;10.50;100.00
53932;BME280;39844;52.496;13.482;2022-10-31T04:27:03;101771.53;;;10.48;100.00
53932;BME280;39844;52.496;13.482;2022-10-31T04:29:28;101767.16;;;10.48;100.00
53932;BME280;39844;52.496;13.482;2022-10-31T04:31:54;101772.41;;;10.47;100.00
53932;BME280;39844;52.496;13.482;2022-10-31T04:34:19;101770.66;;;10.47;100.00
53932;BME280;39844;52.496;13.482;2022-10-31T04:36:44;101774.16;;;10.48;100.00
53932;BME280;39844;52.496;13.482;2022-10-31T04:39:10;101775.91;;;10.47;100.00
53932;BME280;39844;52.496;13.482;2022-10-31T04:41:35;101774.16;;;10.48;100.00
53932;BME280;39844;52.496;13.482;2022-10-31T04:44:00;101775.00;;;10.45;100.00
53932;BME280;39844;52.496;13.482;2022-10-31T04:46:26;101777.59;;;10.44;100.00
53932;BME280;39844;52.496;13.482;2022-10-31T04:48:51;101778.44;;;10.43;100.00
53932;BME280;39844;52.496;13.482;2022-10-31T04:51:16;101781.91;;;10.40;100.00
53932;BME280;39844;52.496;13.482;2022-10-31T04:53:41;101779.28;;;10.39;100.00
53932;BME280;39844;52.496;13.482;2022-10-31T04:56:07;101781.03;;;10.38;100.00
53932;BME280;39844;52.496;13.482;2022-10-31T04:58:32;101781.00;;;10.37;100.00
53932;BME280;39844;52.496;13.482;2022-10-31T05:00:57;101770.50;;;10.37;100.00
53932;BME280;39844;52.496;13.482;2022-10-31T05:03:23;101778.34;;;10.35;100.00
53932;BME280;39844;52.496;13.482;2022-10-31T05:05:48;101774.03;;;10.39;100.00
53932;BME280;39844;52.496;13.482;2022-10-31T05:08:14;101777.50;;;10.38;100.00
53932;BME280;39844;52.496;13.482;2022-10-31T05:10:39;101781.88;;;10.36;100.00
53932;BME280;39844;52.496;13.482;2022-10-31T05:13:05;101784.50;;;10.36;100.00
53932;BME280;39844;52.496;13.482;2022-10-31T05:15:31;101787.22;;;10.42;100.00
53932;BME280;39844;52.496;13.482;2022-10-31T05:17:56;101796.09;;;10.51;100.00
53932;BME280;39844;52.496;13.482;2022-10-31T05:20:24;101795.19;;;10.49;100.00
53932;BME280;39844;52.496;13.482;2022-10-31T05:22:53;101789.00;;;10.44;100.00
53932;BME280;39844;52.496;13.482;2022-10-31T05:25:20;101788.94;;;10.43;100.00
53932;BME280;39844;52.496;13.482;2022-10-31T05:27:48;101794.19;;;10.41;100.00
53932;BME280;39844;52.496;13.482;2022-10-31T05:30:17;101784.59;;;10.43;100.00
53932;BME280;39844;52.496;13.482;2022-10-31T05:32:45;101795.97;;;10.44;100.00
53932;BME280;39844;52.496;13.482;2022-10-31T05:35:13;101798.56;;;10.41;100.00
53932;BME280;39844;52.496;13.482;2022-10-31T05:37:39;101801.13;;;10.36;100.00
53932;BME280;39844;52.496;13.482;2022-10-31T05:40:07;101802.81;;;10.33;100.00
53932;BME280;39844;52.496;13.482;2022-10-31T05:42:32;101806.31;;;10.32;100.00
53932;BME280;39844;52.496;13.482;2022-10-31T05:44:58;101806.28;;;10.30;100.00
53932;BME280;39844;52.496;13.482;2022-10-31T05:47:23;101801.06;;;10.32;100.00
53932;BME280;39844;52.496;13.482;2022-10-31T05:49:49;101799.28;;;10.31;100.00
53932;BME280;39844;52.496;13.482;2022-10-31T05:52:14;101798.44;;;10.32;100.00
53932;BME280;39844;52.496;13.482;2022-10-31T05:54:39;101809.94;;;10.43;100.00
53932;BME280;39844;52.496;13.482;2022-10-31T05:57:05;101805.72;;;10.52;100.00
53932;BME280;39844;52.496;13.482;2022-10-31T05:59:30;101815.47;;;10.61;100.00
53932;BME280;39844;52.496;13.482;2022-10-31T06:01:56;101804.09;;;10.62;100.00
53932;BME280;39844;52.496;13.482;2022-10-31T06:04:21;101804.91;;;10.58;100.00
53932;BME280;39844;52.496;13.482;2022-10-31T06:06:46;101811.88;;;10.54;100.00
53932;BME280;39844;52.496;13.482;2022-10-31T06:09:11;101813.63;;;10.52;100.00
53932;BME280;39844;52.496;13.482;2022-10-31T06:11:37;101811.84;;;10.51;100.00
53932;BME280;39844;52.496;13.482;2022-10-31T06:14:03;101816.25;;;10.54;100.00
53932;BME280;39844;52.496;13.482;2022-10-31T06:16:28;101808.38;;;10.54;100.00
53932;BME280;39844;52.496;13.482;2022-10-31T06:18:53;101819.81;;;10.59;100.00
53932;BME280;39844;52.496;13.482;2022-10-31T06:21:18;101820.75;;;10.64;100.00
53932;BME280;39844;52.496;13.482;2022-10-31T06:23:44;101827.78;;;10.66;100.00
53932;BME280;39844;52.496;13.482;2022-10-31T06:26:09;101824.31;;;10.67;100.00
53932;BME280;39844;52.496;13.482;2022-10-31T06:28:34;101826.94;;;10.67;100.00
53932;BME280;39844;52.496;13.482;2022-10-31T06:31:00;101829.56;;;10.67;100.00
53932;BME280;39844;52.496;13.482;2022-10-31T06:33:25;101833.03;;;10.65;100.00
53932;BME280;39844;52.496;13.482;2022-10-31T06:35:50;101833.88;;;10.64;100.00
53932;BME280;39844;52.496;13.482;2022-10-31T06:38:16;101838.25;;;10.62;100.00
53932;BME280;39844;52.496;13.482;2022-10-31T06:40:41;101835.63;;;10.62;100.00
53932;BME280;39844;52.496;13.482;2022-10-31T06:43:06;101844.38;;;10.64;100.00
53932;BME280;39844;52.496;13.482;2022-10-31T06:45:32;101849.69;;;10.67;100.00
53932;BME280;39844;52.496;13.482;2022-10-31T06:47:57;101844.50;;;10.71;100.00
53932;BME280;39844;52.496;13.482;2022-10-31T06:50:23;101844.50;;;10.73;100.00
53932;BME280;39844;52.496;13.482;2022-10-31T06:52:53;101856.88;;;10.83;100.00
53932;BME280;39844;52.496;13.482;2022-10-31T06:55:19;101853.47;;;10.87;100.00
53932;BME280;39844;52.496;13.482;2022-10-31T06:57:56;101860.50;;;10.91;100.00
53932;BME280;39844;52.496;13.482;2022-10-31T07:00:22;101866.63;;;10.90;100.00
53932;BME280;39844;52.496;13.482;2022-10-31T07:03:04;101867.53;;;10.92;100.00
53932;BME280;39844;52.496;13.482;2022-10-31T07:05:30;101867.53;;;10.92;100.00
53932;BME280;39844;52.496;13.482;2022-10-31T07:08:00;101860.59;;;10.97;100.00
53932;BME280;39844;52.496;13.482;2022-10-31T07:10:28;101855.38;;;11.00;100.00
53932;BME280;39844;52.496;13.482;2022-10-31T07:12:58;101865.94;;;11.05;100.00
53932;BME280;39844;52.496;13.482;2022-10-31T07:15:25;101865.19;;;11.16;100.00
53932;BME280;39844;52.496;13.482;2022-10-31T07:17:51;101871.47;;;11.29;100.00
53932;BME280;39844;52.496;13.482;2022-10-31T07:20:16;101861.13;;;11.41;100.00
53932;BME280;39844;52.496;13.482;2022-10-31T07:22:42;101862.97;;;11.53;100.00
53932;BME280;39844;52.496;13.482;2022-10-31T07:25:08;101862.22;;;11.63;100.00
53932;BME280;39844;52.496;13.482;2022-10-31T07:27:37;101867.63;;;11.72;100.00
53932;BME280;39844;52.496;13.482;2022-10-31T07:30:04;101872.09;;;11.85;100.00
53932;BME280;39844;52.496;13.482;2022-10-31T07:32:46;101874.06;;;12.07;100.00
53932;BME280;39844;52.496;13.482;2022-10-31T07:35:19;101867.22;;;12.27;100.00
53932;BME280;39844;52.496;13.482;2022-10-31T07:37:45;101875.28;;;12.53;100.00
53932;BME280;39844;52.496;13.482;2022-10-31T07:40:11;101877.19;;;12.77;100.00
53932;BME280;39844;52.496;13.482;2022-10-31T07:42:36;101877.28;;;12.98;100.00
53932;BME280;39844;52.496;13.482;2022-10-31T07:45:03;101880.03;;;13.14;100.00
53932;BME280;39844;52.496;13.482;2022-10-31T07:47:28;101881.88;;;13.29;100.00
53932;BME280;39844;52.496;13.482;2022-10-31T07:49:54;101891.59;;;13.42;100.00
53932;BME280;39844;52.496;13.482;2022-10-31T07:52:19;101889.84;;;13.53;100.00
53932;BME280;39844;52.496;13.482;2022-10-31T07:54:44;101890.72;;;13.63;100.00
53932;BME280;39844;52.496;13.482;2022-10-31T07:57:10;101882.84;;;13.72;100.00
53932;BME280;39844;52.496;13.482;2022-10-31T07:59:35;101882.88;;;13.79;100.00
53932;BME280;39844;52.496;13.482;2022-10-31T08:02:00;101896.97;;;13.87;100.00
53932;BME280;39844;52.496;13.482;2022-10-31T08:04:25;101897.84;;;13.96;100.00
53932;BME280;39844;52.496;13.482;2022-10-31T08:06:51;101897.84;;;14.03;100.00
53932;BME280;39844;52.496;13.482;2022-10-31T08:09:16;101902.25;;;14.10;100.00
53932;BME280;39844;52.496;13.482;2022-10-31T08:11:41;101896.97;;;14.16;100.00
53932;BME280;39844;52.496;13.482;2022-10-31T08:14:07;101898.72;;;14.20;100.00
53932;BME280;39844;52.496;13.482;2022-10-31T08:16:32;101896.94;;;14.24;100.00
53932;BME280;39844;52.496;13.482;2022-10-31T08:18:58;101896.97;;;14.28;100.00
53932;BME280;39844;52.496;13.482;2022-10-31T08:21:23;101894.31;;;14.30;100.00
53932;BME280;39844;52.496;13.482;2022-10-31T08:23:48;101898.75;;;14.32;100.00
53932;BME280;39844;52.496;13.482;2022-10-31T08:26:14;101896.13;;;14.35;100.00
53932;BME280;39844;52.496;13.482;2022-10-31T08:28:39;101896.09;;;14.37;100.00
53932;BME280;39844;52.496;13.482;2022-10-31T08:31:04;101897.00;;;14.39;100.00
53932;BME280;39844;52.496;13.482;2022-10-31T08:33:31;101904.06;;;14.41;100.00
53932;BME280;39844;52.496;13.482;2022-10-31T08:35:58;101901.41;;;14.43;100.00
53932;BME280;39844;52.496;13.482;2022-10-31T08:38:23;101902.28;;;14.45;100.00
53932;BME280;39844;52.496;13.482;2022-10-31T08:40:49;101911.97;;;14.46;99.64
53932;BME280;39844;52.496;13.482;2022-10-31T08:43:16;101916.34;;;14.47;99.76
53932;BME280;39844;52.496;13.482;2022-10-31T08:45:42;101916.38;;;14.44;98.62
53932;BME280;39844;52.496;13.482;2022-10-31T08:48:13;101916.38;;;14.44;98.93
53932;BME280;39844;52.496;13.482;2022-10-31T08:50:39;101913.75;;;14.44;98.72
53932;BME280;39844;52.496;13.482;2022-10-31T08:53:11;101894.34;;;14.43;98.68
53932;BME280;39844;52.496;13.482;2022-10-31T08:55:37;101898.75;;;14.43;98.31
53932;BME280;39844;52.496;13.482;2022-10-31T08:58:10;101898.75;;;14.44;98.14
53932;BME280;39844;52.496;13.482;2022-10-31T09:00:36;101898.75;;;14.47;98.30
53932;BME280;39844;52.496;13.482;2022-10-31T09:03:06;101895.22;;;14.48;98.21
53932;BME280;39844;52.496;13.482;2022-10-31T09:05:32;101897.88;;;14.50;98.59
53932;BME280;39844;52.496;13.482;2022-10-31T09:07:59;101904.03;;;14.50;98.51
53932;BME280;39844;52.496;13.482;2022-10-31T09:10:25;101899.63;;;14.54;98.63
53932;BME280;39844;52.496;13.482;2022-10-31T09:13:04;101911.94;;;14.55;98.78
53932;BME280;39844;52.496;13.482;2022-10-31T09:15:37;101914.59;;;14.58;98.75
53932;BME280;39844;52.496;13.482;2022-10-31T09:18:04;101917.22;;;14.63;98.68
53932;BME280;39844;52.496;13.482;2022-10-31T09:20:31;101917.22;;;14.67;98.47
53932;BME280;39844;52.496;13.482;2022-10-31T09:23:01;101926.91;;;14.73;97.45
53932;BME280;39844;52.496;13.482;2022-10-31T09:25:27;101921.63;;;14.76;97.26
53932;BME280;39844;52.496;13.482;2022-10-31T09:28:00;101930.41;;;14.78;97.00
53932;BME280;39844;52.496;13.482;2022-10-31T09:30:29;101926.91;;;14.79;96.74
53932;BME280;39844;52.496;13.482;2022-10-31T09:32:59;101924.25;;;14.80;96.37
53932;BME280;39844;52.496;13.482;2022-10-31T09:35:26;101933.03;;;14.82;96.19
53932;BME280;39844;52.496;13.482;2022-10-31T09:37:59;101930.41;;;14.84;95.71
53932;BME280;39844;52.496;13.482;2022-10-31T09:40:55;101933.03;;;14.88;95.83
53932;BME280;39844;52.496;13.482;2022-10-31T09:43:34;101930.41;;;14.94;95.52
53932;BME280;39844;52.496;13.482;2022-10-31T09:46:09;101929.47;;;14.98;95.17
53932;BME280;39844;52.496;13.482;2022-10-31T09:51:33;101947.09;;;15.08;94.41
53932;BME280;39844;52.496;13.482;2022-10-31T09:56:25;101944.41;;;15.13;93.16
53932;BME280;39844;52.496;13.482;2022-10-31T09:58:54;101940.91;;;15.14;93.27
53932;BME280;39844;52.496;13.482;2022-10-31T10:01:33;101940.03;;;15.13;93.20
53932;BME280;39844;52.496;13.482;2022-10-31T10:04:30;101941.78;;;15.13;92.82
53932;BME280;39844;52.496;13.482;2022-10-31T10:06:58;101936.50;;;15.14;92.74
53932;BME280;39844;52.496;13.482;2022-10-31T10:09:26;101938.28;;;15.12;92.84
53932;BME280;39844;52.496;13.482;2022-10-31T10:15:20;101939.13;;;15.16;93.43
53932;BME280;39844;52.496;13.482;2022-10-31T10:20:35;101924.97;;;15.26;92.81
53932;BME280;39844;52.496;13.482;2022-10-31T10:23:43;101919.66;;;15.34;92.49
53932;BME280;39844;52.496;13.482;2022-10-31T10:26:31;101917.88;;;15.39;91.86
53932;BME280;39844;52.496;13.482;2022-10-31T10:29:27;101912.56;;;15.39;91.85
53932;BME280;39844;52.496;13.482;2022-10-31T10:31:57;101910.81;;;15.39;91.28
53932;BME280;39844;52.496;13.482;2022-10-31T10:34:39;101911.69;;;15.38;91.21
53932;BME280;39844;52.496;13.482;2022-10-31T10:37:23;101917.88;;;15.39;91.45
53932;BME280;39844;52.496;13.482;2022-10-31T10:39:54;101912.59;;;15.37;91.25
53932;BME280;39844;52.496;13.482;2022-10-31T10:42:22;101913.50;;;15.38;91.65
53932;BME280;39844;52.496;13.482;2022-10-31T10:45:19;101903.75;;;15.38;91.71
53932;BME280;39844;52.496;13.482;2022-10-31T10:50:52;101898.44;;;15.52;91.82
53932;BME280;39844;52.496;13.482;2022-10-31T10:53:28;101897.50;;;15.59;91.43
53932;BME280;39844;52.496;13.482;2022-10-31T10:58:44;101903.66;;;15.65;90.51
53932;BME280;39844;52.496;13.482;2022-10-31T11:01:14;101905.41;;;15.71;90.03
53932;BME280;39844;52.496;13.482;2022-10-31T11:03:41;101908.88;;;15.77;89.82
53932;BME280;39844;52.496;13.482;2022-10-31T11:06:17;101906.19;;;15.85;89.52
53932;BME280;39844;52.496;13.482;2022-10-31T11:08:47;101906.09;;;15.94;89.32
53932;BME280;39844;52.496;13.482;2022-10-31T11:11:31;101902.53;;;16.01;88.88
53932;BME280;39844;52.496;13.482;2022-10-31T11:14:03;101898.97;;;16.08;87.95
53932;BME280;39844;52.496;13.482;2022-10-31T11:16:33;101892.72;;;16.14;87.87
53932;BME280;39844;52.496;13.482;2022-10-31T11:19:26;101889.19;;;16.16;87.16
53932;BME280;39844;52.496;13.482;2022-10-31T11:21:52;101891.81;;;16.19;86.82
53932;BME280;39844;52.496;13.482;2022-10-31T11:24:20;101893.50;;;16.25;86.08
53932;BME280;39844;52.496;13.482;2022-10-31T11:26:48;101878.50;;;16.27;85.93
53932;BME280;39844;52.496;13.482;2022-10-31T11:29:26;101874.03;;;16.30;85.68
53932;BME280;39844;52.496;13.482;2022-10-31T11:31:57;101876.69;;;16.32;85.70
53932;BME280;39844;52.496;13.482;2022-10-31T11:34:32;101880.19;;;16.34;85.64
53932;BME280;39844;52.496;13.482;2022-10-31T11:37:09;101881.00;;;16.40;85.78
53932;BME280;39844;52.496;13.482;2022-10-31T11:39:41;101878.31;;;16.45;86.18
53932;BME280;39844;52.496;13.482;2022-10-31T11:42:07;101884.44;;;16.52;86.17
53932;BME280;39844;52.496;13.482;2022-10-31T11:44:33;101879.94;;;16.63;86.91
53932;BME280;39844;52.496;13.482;2022-10-31T11:47:03;101884.09;;;16.88;87.51
53932;BME280;39844;52.496;13.482;2022-10-31T11:49:41;101872.00;;;17.34;85.09
53932;BME280;39844;52.496;13.482;2022-10-31T11:52:25;101871.38;;;17.81;83.20
53932;BME280;39844;52.496;13.482;2022-10-31T11:54:58;101867.06;;;18.27;79.49
53932;BME280;39844;52.496;13.482;2022-10-31T11:57:32;101877.16;;;18.59;76.92
53932;BME280;39844;52.496;13.482;2022-10-31T12:00:04;101881.16;;;18.81;75.04
53932;BME280;39844;52.496;13.482;2022-10-31T12:02:29;101870.13;;;19.00;73.68
53932;BME280;39844;52.496;13.482;2022-10-31T12:05:08;101863.66;;;19.14;72.40
53932;BME280;39844;52.496;13.482;2022-10-31T12:07:42;101865.09;;;19.29;71.56
53932;BME280;39844;52.496;13.482;2022-10-31T12:10:12;101856.03;;;19.39;70.29
53932;BME280;39844;52.496;13.482;2022-10-31T12:12:50;101853.16;;;19.48;70.13
53932;BME280;39844;52.496;13.482;2022-10-31T12:15:28;101856.56;;;19.54;70.16
53932;BME280;39844;52.496;13.482;2022-10-31T12:18:47;101854.69;;;19.58;69.30
53932;BME280;39844;52.496;13.482;2022-10-31T12:21:21;101852.72;;;19.68;68.67
53932;BME280;39844;52.496;13.482;2022-10-31T12:23:53;101847.09;;;19.78;69.23
53932;BME280;39844;52.496;13.482;2022-10-31T12:26:39;101849.56;;;19.87;67.70
53932;BME280;39844;52.496;13.482;2022-10-31T12:29:20;101842.47;;;19.86;67.83
53932;BME280;39844;52.496;13.482;2022-10-31T12:39:55;101827.28;;;19.90;66.66
53932;BME280;39844;52.496;13.482;2022-10-31T12:45:23;101832.84;;;19.81;66.76
53932;BME280;39844;52.496;13.482;2022-10-31T12:48:10;101830.34;;;19.73;66.61
53932;BME280;39844;52.496;13.482;2022-10-31T12:50:47;101824.34;;;19.65;66.98
53932;BME280;39844;52.496;13.482;2022-10-31T12:53:31;101825.38;;;19.58;67.71
53932;BME280;39844;52.496;13.482;2022-10-31T12:58:45;101820.94;;;19.60;68.14
53932;BME280;39844;52.496;13.482;2022-10-31T13:01:28;101817.34;;;19.61;67.57
53932;BME280;39844;52.496;13.482;2022-10-31T13:04:15;101815.59;;;19.60;67.95
53932;BME280;39844;52.496;13.482;2022-10-31T13:06:49;101815.66;;;19.57;68.60
53932;BME280;39844;52.496;13.482;2022-10-31T13:09:18;101817.50;;;19.55;68.41
53932;BME280;39844;52.496;13.482;2022-10-31T13:11:49;101817.50;;;19.53;68.23
53932;BME280;39844;52.496;13.482;2022-10-31T13:14:33;101810.41;;;19.54;68.54
53932;BME280;39844;52.496;13.482;2022-10-31T13:17:01;101814.97;;;19.49;68.17
53932;BME280;39844;52.496;13.482;2022-10-31T13:19:28;101815.88;;;19.48;68.43
53932;BME280;39844;52.496;13.482;2022-10-31T13:22:02;101812.16;;;19.55;69.36
53932;BME280;39844;52.496;13.482;2022-10-31T13:24:34;101811.09;;;19.62;69.20
53932;BME280;39844;52.496;13.482;2022-10-31T13:27:09;101805.72;;;19.64;68.42
53932;BME280;39844;52.496;13.482;2022-10-31T13:29:42;101811.09;;;19.62;68.35
53932;BME280;39844;52.496;13.482;2022-10-31T13:32:09;101803.19;;;19.59;68.32
53932;BME280;39844;52.496;13.482;2022-10-31T13:34:38;101805.97;;;19.53;68.81
53932;BME280;39844;52.496;13.482;2022-10-31T13:37:19;101801.72;;;19.46;68.65